Time,TemperatureF,DewpointF,PressureIn,WindDirection,WindDirectionDegrees,WindSpeedMPH,WindSpeedGustMPH,Humidity,HourlyPrecipIn,Conditions,Clouds,dailyrainin,SoftwareType,DateUTC
2013-05-05 00:02:00,47.6,43.6,30.16,NNW,331,0.0,0.0,86,0.00,,,0.00,Wunderground v.1.15,2013-05-05 04:02:00,
2013-05-05 00:04:00,47.5,43.5,30.16,NNW,331,0.0,0.0,86,0.00,,,0.00,Wunderground v.1.15,2013-05-05 04:04:00,
2013-05-05 00:06:00,47.5,43.5,30.16,NNW,331,0.0,0.0,86,0.00,,,0.00,Wunderground v.1.15,2013-05-05 04:06:00,
2013-05-05 00:08:00,47.4,43.4,30.16,NNW,331,0.0,0.0,86,0.00,,,0.00,Wunderground v.1.15,2013-05-05 04:08:00,
2013-05-05 00:10:00,47.3,43.3,30.16,NNW,331,0.0,0.0,86,0.00,,,0.00,Wunderground v.1.15,2013-05-05 04:10:00,
2013-05-05 00:16:00,47.0,43.3,30.16,NNW,331,0.0,0.0,87,0.00,,,0.00,Wunderground v.1.15,2013-05-05 04:16:00,
2013-05-05 00:22:00,46.8,43.1,30.16,NNW,331,0.0,0.0,87,0.00,,,0.00,Wunderground v.1.15,2013-05-05 04:22:00,
2013-05-05 00:28:00,46.5,42.8,30.16,NNW,331,0.0,0.0,87,0.00,,,0.00,Wunderground v.1.15,2013-05-05 04:28:00,
2013-05-05 00:34:00,46.3,42.9,30.16,NNW,331,0.0,0.0,88,0.00,,,0.00,Wunderground v.1.15,2013-05-05 04:34:00,
2013-05-05 00:40:00,46.1,42.7,30.16,NNW,331,0.0,0.0,88,0.00,,,0.00,Wunderground v.1.15,2013-05-05 04:40:00,
2013-05-05 00:46:00,45.9,42.5,30.16,NNW,331,0.0,0.0,88,0.00,,,0.00,Wunderground v.1.15,2013-05-05 04:46:00,
2013-05-05 00:52:00,45.7,42.3,30.16,NNW,331,0.0,0.0,88,0.00,,,0.00,Wunderground v.1.15,2013-05-05 04:52:00,
2013-05-05 00:58:00,45.5,42.2,30.15,NNW,331,0.0,0.0,88,0.00,,,0.00,Wunderground v.1.15,2013-05-05 04:58:00,
2013-05-05 01:04:00,45.3,42.2,30.15,NNW,331,0.0,0.0,89,0.00,,,0.00,Wunderground v.1.15,2013-05-05 05:04:00,
2013-05-05 01:10:00,45.1,42.1,30.15,NNW,331,0.0,0.0,89,0.00,,,0.00,Wunderground v.1.15,2013-05-05 05:10:00,
2013-05-05 01:16:00,44.9,42.1,30.15,NNW,331,0.0,0.0,90,0.00,,,0.00,Wunderground v.1.15,2013-05-05 05:16:00,
2013-05-05 01:22:00,44.8,42.0,30.15,NNW,331,0.0,0.0,90,0.00,,,0.00,Wunderground v.1.15,2013-05-05 05:22:00,
2013-05-05 01:28:00,44.7,42.2,30.15,NNW,331,0.0,0.0,91,0.00,,,0.00,Wunderground v.1.15,2013-05-05 05:28:00,
2013-05-05 01:34:00,44.6,42.1,30.14,NNW,331,0.0,0.0,91,0.00,,,0.00,Wunderground v.1.15,2013-05-05 05:34:00,
2013-05-05 01:40:00,44.6,42.1,30.14,NNW,331,0.0,0.0,91,0.00,,,0.00,Wunderground v.1.15,2013-05-05 05:40:00,
2013-05-05 01:46:00,44.5,42.0,30.14,NNW,331,0.0,0.0,91,0.00,,,0.00,Wunderground v.1.15,2013-05-05 05:46:00,
2013-05-05 01:52:00,44.3,41.8,30.14,NNW,331,0.0,0.0,91,0.00,,,0.00,Wunderground v.1.15,2013-05-05 05:52:00,
2013-05-05 01:58:00,44.3,41.8,30.14,NNW,331,0.0,0.0,91,0.00,,,0.00,Wunderground v.1.15,2013-05-05 05:58:00,
2013-05-05 02:04:00,44.1,41.9,30.14,NNW,331,0.0,0.0,92,0.00,,,0.00,Wunderground v.1.15,2013-05-05 06:04:00,
2013-05-05 02:10:00,44.0,41.8,30.14,NNW,331,0.0,0.0,92,0.00,,,0.00,Wunderground v.1.15,2013-05-05 06:10:00,
2013-05-05 02:16:00,43.9,41.7,30.14,NNW,331,0.0,0.0,92,0.00,,,0.00,Wunderground v.1.15,2013-05-05 06:16:00,
2013-05-05 02:22:00,43.7,41.5,30.14,NNW,331,0.0,0.0,92,0.00,,,0.00,Wunderground v.1.15,2013-05-05 06:22:00,
2013-05-05 02:28:00,43.5,41.3,30.14,NNW,331,0.0,0.0,92,0.00,,,0.00,Wunderground v.1.15,2013-05-05 06:28:00,
2013-05-05 02:34:00,43.4,41.2,30.14,NNW,331,0.0,0.0,92,0.00,,,0.00,Wunderground v.1.15,2013-05-05 06:34:00,
2013-05-05 02:40:00,43.2,41.0,30.14,NNW,331,0.0,0.0,92,0.00,,,0.00,Wunderground v.1.15,2013-05-05 06:40:00,
2013-05-05 02:46:00,43.0,40.8,30.14,NNW,331,0.0,0.0,92,0.00,,,0.00,Wunderground v.1.15,2013-05-05 06:46:00,
2013-05-05 02:52:00,42.9,40.7,30.13,NNW,331,0.0,0.0,92,0.00,,,0.00,Wunderground v.1.15,2013-05-05 06:52:00,
2013-05-05 02:58:00,42.7,40.5,30.13,NNW,331,0.0,0.0,92,0.00,,,0.00,Wunderground v.1.15,2013-05-05 06:58:00,
2013-05-05 03:04:00,42.5,40.3,30.13,NNW,331,0.0,0.0,92,0.00,,,0.00,Wunderground v.1.15,2013-05-05 07:04:00,
2013-05-05 03:10:00,42.4,40.2,30.13,NNW,331,0.0,0.0,92,0.00,,,0.00,Wunderground v.1.15,2013-05-05 07:10:00,
2013-05-05 03:16:00,42.3,40.1,30.13,NNW,331,0.0,0.0,92,0.00,,,0.00,Wunderground v.1.15,2013-05-05 07:16:00,
2013-05-05 03:22:00,42.2,40.3,30.13,NNW,331,0.0,0.0,93,0.00,,,0.00,Wunderground v.1.15,2013-05-05 07:22:00,
2013-05-05 03:28:00,42.0,39.8,30.13,NNW,331,0.0,0.0,92,0.00,,,0.00,Wunderground v.1.15,2013-05-05 07:28:00,
2013-05-05 03:34:00,41.8,39.6,30.13,NNW,331,0.0,0.0,92,0.00,,,0.00,Wunderground v.1.15,2013-05-05 07:34:00,
2013-05-05 03:40:00,41.8,39.6,30.13,NNW,331,0.0,0.0,92,0.00,,,0.00,Wunderground v.1.15,2013-05-05 07:40:00,
2013-05-05 03:46:00,41.7,39.8,30.13,NNW,331,0.0,0.0,93,0.00,,,0.00,Wunderground v.1.15,2013-05-05 07:46:00,
2013-05-05 03:52:00,41.6,39.7,30.12,NNW,331,0.0,0.0,93,0.00,,,0.00,Wunderground v.1.15,2013-05-05 07:52:00,
2013-05-05 03:58:00,41.5,39.3,30.12,NNW,331,0.0,0.0,92,0.00,,,0.00,Wunderground v.1.15,2013-05-05 07:58:00,
2013-05-05 04:04:00,41.3,39.2,30.12,NNW,331,0.0,0.0,92,0.00,,,0.00,Wunderground v.1.15,2013-05-05 08:04:00,
2013-05-05 04:10:00,41.1,39.0,30.12,NNW,331,0.0,0.0,92,0.00,,,0.00,Wunderground v.1.15,2013-05-05 08:10:00,
2013-05-05 04:16:00,40.9,38.8,30.12,NNW,331,0.0,0.0,92,0.00,,,0.00,Wunderground v.1.15,2013-05-05 08:16:00,
2013-05-05 04:22:00,40.9,39.0,30.12,NNW,331,0.0,0.0,93,0.00,,,0.00,Wunderground v.1.15,2013-05-05 08:22:00,
2013-05-05 04:28:00,40.8,38.7,30.12,NNW,331,0.0,0.0,92,0.00,,,0.00,Wunderground v.1.15,2013-05-05 08:28:00,
2013-05-05 04:34:00,40.6,38.5,30.12,NNW,331,0.0,0.0,92,0.00,,,0.00,Wunderground v.1.15,2013-05-05 08:34:00,
2013-05-05 04:40:00,40.4,38.3,30.12,NNW,331,0.0,0.0,92,0.00,,,0.00,Wunderground v.1.15,2013-05-05 08:40:00,
2013-05-05 04:46:00,40.3,38.2,30.12,NNW,331,0.0,0.0,92,0.00,,,0.00,Wunderground v.1.15,2013-05-05 08:46:00,
2013-05-05 04:52:00,40.1,38.0,30.12,NNW,331,0.0,0.0,92,0.00,,,0.00,Wunderground v.1.15,2013-05-05 08:52:00,
2013-05-05 04:58:00,40.1,38.2,30.12,NNW,331,0.0,0.0,93,0.00,,,0.00,Wunderground v.1.15,2013-05-05 08:58:00,
2013-05-05 05:04:00,40.0,38.1,30.12,NNW,331,0.0,0.0,93,0.00,,,0.00,Wunderground v.1.15,2013-05-05 09:04:00,
2013-05-05 05:10:00,39.9,38.0,30.13,NNW,331,0.0,0.0,93,0.00,,,0.00,Wunderground v.1.15,2013-05-05 09:10:00,
2013-05-05 05:16:00,40.0,38.1,30.13,NNW,331,0.0,0.0,93,0.00,,,0.00,Wunderground v.1.15,2013-05-05 09:16:00,
2013-05-05 05:22:00,40.0,38.1,30.13,NNW,331,0.0,0.0,93,0.00,,,0.00,Wunderground v.1.15,2013-05-05 09:22:00,
2013-05-05 05:28:00,40.0,38.1,30.13,NNW,331,0.0,0.0,93,0.00,,,0.00,Wunderground v.1.15,2013-05-05 09:28:00,
2013-05-05 05:34:00,40.0,38.1,30.13,NNW,331,0.0,0.0,93,0.00,,,0.00,Wunderground v.1.15,2013-05-05 09:34:00,
2013-05-05 05:40:00,40.0,38.1,30.14,NNW,331,0.0,0.0,93,0.00,,,0.00,Wunderground v.1.15,2013-05-05 09:40:00,
2013-05-05 05:46:00,40.1,38.2,30.13,NNW,331,0.0,0.0,93,0.00,,,0.00,Wunderground v.1.15,2013-05-05 09:46:00,
2013-05-05 05:52:00,40.3,38.4,30.13,NNW,331,0.0,0.0,93,0.00,,,0.00,Wunderground v.1.15,2013-05-05 09:52:00,
2013-05-05 05:58:00,40.4,38.3,30.14,NNW,331,0.0,0.0,92,0.00,,,0.00,Wunderground v.1.15,2013-05-05 09:58:00,
2013-05-05 06:04:00,40.5,38.1,30.15,NNW,331,0.0,1.0,91,0.00,,,0.00,Wunderground v.1.15,2013-05-05 10:04:00,
2013-05-05 06:10:00,40.5,38.1,30.15,NNW,331,0.0,1.0,91,0.00,,,0.00,Wunderground v.1.15,2013-05-05 10:10:00,
2013-05-05 06:16:00,40.5,37.8,30.15,NNW,331,0.0,1.0,90,0.00,,,0.00,Wunderground v.1.15,2013-05-05 10:16:00,
2013-05-05 06:22:00,40.4,37.7,30.15,NNW,331,0.0,1.0,90,0.00,,,0.00,Wunderground v.1.15,2013-05-05 10:22:00,
2013-05-05 06:28:00,40.2,37.5,30.16,NNW,331,0.0,1.0,90,0.00,,,0.00,Wunderground v.1.15,2013-05-05 10:28:00,
2013-05-05 06:34:00,40.1,37.4,30.16,NNW,331,0.0,1.0,90,0.00,,,0.00,Wunderground v.1.15,2013-05-05 10:34:00,
2013-05-05 06:40:00,40.0,37.6,30.16,NNW,331,0.0,1.0,91,0.00,,,0.00,Wunderground v.1.15,2013-05-05 10:40:00,
2013-05-05 06:46:00,40.1,38.0,30.16,NNW,331,0.0,1.0,92,0.00,,,0.00,Wunderground v.1.15,2013-05-05 10:46:00,
2013-05-05 06:52:00,40.4,38.3,30.16,NNW,331,0.0,1.0,92,0.00,,,0.00,Wunderground v.1.15,2013-05-05 10:52:00,
2013-05-05 06:58:00,40.7,38.6,30.16,NNW,331,0.0,1.0,92,0.00,,,0.00,Wunderground v.1.15,2013-05-05 10:58:00,
2013-05-05 07:04:00,41.1,39.0,30.17,NNW,331,0.0,1.0,92,0.00,,,0.00,Wunderground v.1.15,2013-05-05 11:04:00,
2013-05-05 07:10:00,41.6,39.4,30.16,NNW,331,0.0,1.0,92,0.00,,,0.00,Wunderground v.1.15,2013-05-05 11:10:00,
2013-05-05 07:16:00,42.0,39.6,30.17,NNW,331,0.0,1.0,91,0.00,,,0.00,Wunderground v.1.15,2013-05-05 11:16:00,
2013-05-05 07:22:00,42.3,39.6,30.17,NNW,331,0.0,1.0,90,0.00,,,0.00,Wunderground v.1.15,2013-05-05 11:22:00,
2013-05-05 07:28:00,42.6,39.9,30.17,NNW,331,0.0,1.0,90,0.00,,,0.00,Wunderground v.1.15,2013-05-05 11:28:00,
2013-05-05 07:34:00,42.9,40.2,30.17,NNW,331,0.0,1.0,90,0.00,,,0.00,Wunderground v.1.15,2013-05-05 11:34:00,
2013-05-05 07:40:00,43.1,40.1,30.17,NNW,331,0.0,1.0,89,0.00,,,0.00,Wunderground v.1.15,2013-05-05 11:40:00,
2013-05-05 07:46:00,43.3,40.3,30.17,NNW,331,0.0,1.0,89,0.00,,,0.00,Wunderground v.1.15,2013-05-05 11:46:00,
2013-05-05 07:52:00,43.4,40.1,30.17,West,281,0.0,1.0,88,0.00,,,0.00,Wunderground v.1.15,2013-05-05 11:52:00,
2013-05-05 07:58:00,43.6,40.6,30.17,West,281,0.0,1.0,89,0.00,,,0.00,Wunderground v.1.15,2013-05-05 11:58:00,
2013-05-05 08:04:00,43.8,40.5,30.17,West,281,0.0,3.0,88,0.00,,,0.00,Wunderground v.1.15,2013-05-05 12:04:00,
2013-05-05 08:10:00,43.9,40.9,30.18,West,281,0.0,3.0,89,0.00,,,0.00,Wunderground v.1.15,2013-05-05 12:10:00,
2013-05-05 08:16:00,44.2,40.9,30.18,West,281,0.0,3.0,88,0.00,,,0.00,Wunderground v.1.15,2013-05-05 12:16:00,
2013-05-05 08:22:00,44.3,40.7,30.18,West,281,0.0,3.0,87,0.00,,,0.00,Wunderground v.1.15,2013-05-05 12:22:00,
2013-05-05 08:28:00,44.5,40.9,30.18,West,281,0.0,3.0,87,0.00,,,0.00,Wunderground v.1.15,2013-05-05 12:28:00,
2013-05-05 08:34:00,44.7,40.8,30.18,WSW,250,0.0,3.0,86,0.00,,,0.00,Wunderground v.1.15,2013-05-05 12:34:00,
2013-05-05 08:40:00,44.9,41.0,30.18,WSW,250,0.0,3.0,86,0.00,,,0.00,Wunderground v.1.15,2013-05-05 12:40:00,
2013-05-05 08:46:00,45.1,40.6,30.18,West,263,0.0,3.0,84,0.00,,,0.00,Wunderground v.1.15,2013-05-05 12:46:00,
2013-05-05 08:52:00,45.3,40.4,30.18,West,263,0.0,3.0,83,0.00,,,0.00,Wunderground v.1.15,2013-05-05 12:52:00,
2013-05-05 08:58:00,45.6,41.0,30.18,West,263,0.0,3.0,84,0.00,,,0.00,Wunderground v.1.15,2013-05-05 12:58:00,
2013-05-05 09:04:00,45.9,41.0,30.18,West,263,0.0,2.0,83,0.00,,,0.00,Wunderground v.1.15,2013-05-05 13:04:00,
2013-05-05 09:10:00,46.0,41.1,30.18,West,263,0.0,2.0,83,0.00,,,0.00,Wunderground v.1.15,2013-05-05 13:10:00,
2013-05-05 09:16:00,46.2,41.3,30.18,West,265,0.0,2.0,83,0.00,,,0.00,Wunderground v.1.15,2013-05-05 13:16:00,
2013-05-05 09:22:00,46.5,41.9,30.18,WNW,302,0.0,2.0,84,0.00,,,0.00,Wunderground v.1.15,2013-05-05 13:22:00,
2013-05-05 09:28:00,46.7,41.5,30.18,WNW,302,0.0,2.0,82,0.00,,,0.00,Wunderground v.1.15,2013-05-05 13:28:00,
2013-05-05 09:34:00,46.8,41.6,30.18,North,5,0.0,2.0,82,0.00,,,0.00,Wunderground v.1.15,2013-05-05 13:34:00,
2013-05-05 09:40:00,47.1,41.9,30.18,North,11,0.0,2.0,82,0.00,,,0.00,Wunderground v.1.15,2013-05-05 13:40:00,
2013-05-05 09:46:00,47.3,41.4,30.18,North,11,0.0,2.0,80,0.00,,,0.00,Wunderground v.1.15,2013-05-05 13:46:00,
2013-05-05 09:54:00,47.4,41.2,30.18,North,11,0.0,2.0,79,0.00,,,0.00,Wunderground v.1.15,2013-05-05 13:54:00,
2013-05-05 10:00:00,47.6,41.4,30.17,WNW,294,0.0,2.0,79,0.00,,,0.00,Wunderground v.1.15,2013-05-05 14:00:00,
2013-05-05 10:06:00,47.7,41.5,30.17,North,349,0.0,7.0,79,0.00,,,0.00,Wunderground v.1.15,2013-05-05 14:06:00,
2013-05-05 10:12:00,47.9,41.7,30.18,NNE,28,0.0,7.0,79,0.00,,,0.00,Wunderground v.1.15,2013-05-05 14:12:00,
2013-05-05 10:18:00,48.1,41.2,30.18,NNW,346,0.0,7.0,77,0.00,,,0.00,Wunderground v.1.15,2013-05-05 14:18:00,
2013-05-05 10:24:00,48.3,41.1,30.17,ENE,78,0.0,7.0,76,0.00,,,0.00,Wunderground v.1.15,2013-05-05 14:24:00,
2013-05-05 10:32:00,48.8,41.9,30.17,West,262,0.0,7.0,77,0.00,,,0.00,Wunderground v.1.15,2013-05-05 14:32:00,
2013-05-05 10:40:00,49.3,42.1,30.17,NNW,348,0.0,7.0,76,0.00,,,0.00,Wunderground v.1.15,2013-05-05 14:40:00,
2013-05-05 10:46:00,49.6,41.7,30.17,North,360,0.0,7.0,74,0.00,,,0.00,Wunderground v.1.15,2013-05-05 14:46:00,
2013-05-05 10:52:00,49.8,41.5,30.17,North,5,0.0,7.0,73,0.00,,,0.00,Wunderground v.1.15,2013-05-05 14:52:00,
2013-05-05 10:58:00,50.0,41.7,30.17,NW,317,0.0,7.0,73,0.00,,,0.00,Wunderground v.1.15,2013-05-05 14:58:00,
2013-05-05 11:04:00,50.3,42.0,30.17,NNW,336,0.0,7.0,73,0.00,,,0.00,Wunderground v.1.15,2013-05-05 15:04:00,
2013-05-05 11:12:00,50.6,41.9,30.17,North,360,1.0,1.0,72,0.00,,,0.00,Wunderground v.1.15,2013-05-05 15:12:00,
2013-05-05 11:18:00,50.7,42.0,30.17,North,5,0.0,7.0,72,0.00,,,0.00,Wunderground v.1.15,2013-05-05 15:18:00,
2013-05-05 11:24:00,51.2,41.7,30.17,South,186,0.0,7.0,70,0.00,,,0.00,Wunderground v.1.15,2013-05-05 15:24:00,
2013-05-05 11:30:00,51.6,43.2,30.17,WNW,300,0.0,7.0,73,0.00,,,0.00,Wunderground v.1.15,2013-05-05 15:30:00,
2013-05-05 11:36:00,51.8,42.3,30.17,North,360,1.0,7.0,70,0.00,,,0.00,Wunderground v.1.15,2013-05-05 15:36:00,
2013-05-05 11:42:00,52.3,42.4,30.17,NW,323,1.0,1.0,69,0.00,,,0.00,Wunderground v.1.15,2013-05-05 15:42:00,
2013-05-05 11:48:00,52.8,42.1,30.16,NNW,334,1.0,7.0,67,0.00,,,0.00,Wunderground v.1.15,2013-05-05 15:48:00,
2013-05-05 11:54:00,53.3,42.2,30.16,SE,135,1.0,7.0,66,0.00,,,0.00,Wunderground v.1.15,2013-05-05 15:54:00,
2013-05-05 12:00:00,53.8,43.1,30.16,SSW,210,1.0,7.0,67,0.00,,,0.00,Wunderground v.1.15,2013-05-05 16:00:00,
2013-05-05 12:06:00,54.5,44.9,30.16,WNW,293,0.0,7.0,70,0.00,,,0.00,Wunderground v.1.15,2013-05-05 16:06:00,
2013-05-05 12:12:00,54.9,44.5,30.16,NNW,347,1.0,1.0,68,0.00,,,0.00,Wunderground v.1.15,2013-05-05 16:12:00,
2013-05-05 12:18:00,55.6,44.0,30.15,SW,227,0.0,7.0,65,0.00,,,0.00,Wunderground v.1.15,2013-05-05 16:18:00,
2013-05-05 12:24:00,55.7,43.3,30.16,SSW,193,0.0,7.0,63,0.00,,,0.00,Wunderground v.1.15,2013-05-05 16:24:00,
2013-05-05 12:30:00,55.3,44.1,30.15,WNW,292,0.0,7.0,66,0.00,,,0.00,Wunderground v.1.15,2013-05-05 16:30:00,
2013-05-05 12:36:00,56.2,45.0,30.16,NW,321,1.0,7.0,66,0.00,,,0.00,Wunderground v.1.15,2013-05-05 16:36:00,
2013-05-05 12:42:00,56.9,43.6,30.15,SSW,213,1.0,7.0,61,0.00,,,0.00,Wunderground v.1.15,2013-05-05 16:42:00,
2013-05-05 12:48:00,56.7,44.2,30.15,WNW,290,1.0,7.0,63,0.00,,,0.00,Wunderground v.1.15,2013-05-05 16:48:00,
2013-05-05 12:54:00,56.3,45.5,30.15,West,278,1.0,7.0,67,0.00,,,0.00,Wunderground v.1.15,2013-05-05 16:54:00,
2013-05-05 13:00:00,56.7,45.1,30.15,NW,308,0.0,7.0,65,0.00,,,0.00,Wunderground v.1.15,2013-05-05 17:00:00,
2013-05-05 13:08:00,57.4,44.1,30.14,NNW,342,1.0,7.0,61,0.00,,,0.00,Wunderground v.1.15,2013-05-05 17:08:00,
2013-05-05 13:14:00,57.8,45.7,30.14,SE,144,1.0,7.0,64,0.00,,,0.00,Wunderground v.1.15,2013-05-05 17:14:00,
2013-05-05 13:20:00,57.7,43.9,30.14,SW,219,1.0,7.0,60,0.00,,,0.00,Wunderground v.1.15,2013-05-05 17:20:00,
2013-05-05 13:26:00,57.5,44.1,30.14,West,279,1.0,7.0,61,0.00,,,0.00,Wunderground v.1.15,2013-05-05 17:26:00,
2013-05-05 13:32:00,58.1,44.7,30.14,NNW,329,0.0,7.0,61,0.00,,,0.00,Wunderground v.1.15,2013-05-05 17:32:00,
2013-05-05 13:38:00,58.9,45.0,30.13,South,178,1.0,7.0,60,0.00,,,0.00,Wunderground v.1.15,2013-05-05 17:38:00,
2013-05-05 13:46:00,59.3,45.8,30.13,West,277,2.0,7.0,61,0.00,,,0.00,Wunderground v.1.15,2013-05-05 17:46:00,
2013-05-05 13:52:00,59.5,44.2,30.13,NNW,340,1.0,1.0,57,0.00,,,0.00,Wunderground v.1.15,2013-05-05 17:52:00,
2013-05-05 13:58:00,59.3,44.5,30.12,SW,236,2.0,7.0,58,0.00,,,0.00,Wunderground v.1.15,2013-05-05 17:58:00,
2013-05-05 14:04:00,59.1,44.3,30.12,NW,311,2.0,6.0,58,0.00,,,0.00,Wunderground v.1.15,2013-05-05 18:04:00,
2013-05-05 14:10:00,59.4,45.9,30.12,WSW,239,1.0,6.0,61,0.00,,,0.00,Wunderground v.1.15,2013-05-05 18:10:00,
2013-05-05 14:16:00,60.2,44.9,30.11,WSW,251,1.0,6.0,57,0.00,,,0.00,Wunderground v.1.15,2013-05-05 18:16:00,
2013-05-05 14:22:00,60.2,45.8,30.11,North,350,1.0,1.0,59,0.00,,,0.00,Wunderground v.1.15,2013-05-05 18:22:00,
2013-05-05 14:28:00,61.0,47.0,30.11,North,5,1.0,6.0,60,0.00,,,0.00,Wunderground v.1.15,2013-05-05 18:28:00,
2013-05-05 14:34:00,61.6,45.7,30.11,South,173,1.0,6.0,56,0.00,,,0.00,Wunderground v.1.15,2013-05-05 18:34:00,
2013-05-05 14:40:00,61.8,45.9,30.10,NNW,331,1.0,6.0,56,0.00,,,0.00,Wunderground v.1.15,2013-05-05 18:40:00,
2013-05-05 14:46:00,62.3,48.2,30.10,North,355,1.0,6.0,60,0.00,,,0.00,Wunderground v.1.15,2013-05-05 18:46:00,
2013-05-05 14:52:00,62.6,46.7,30.10,NE,35,1.0,1.0,56,0.00,,,0.00,Wunderground v.1.15,2013-05-05 18:52:00,
2013-05-05 14:58:00,62.8,48.3,30.10,NW,325,1.0,6.0,59,0.00,,,0.00,Wunderground v.1.15,2013-05-05 18:58:00,
2013-05-05 15:04:00,63.4,46.5,30.10,NW,324,0.0,7.0,54,0.00,,,0.00,Wunderground v.1.15,2013-05-05 19:04:00,
2013-05-05 15:10:00,63.8,46.3,30.10,SW,227,0.0,7.0,53,0.00,,,0.00,Wunderground v.1.15,2013-05-05 19:10:00,
2013-05-05 15:16:00,63.8,48.3,30.10,SSE,167,1.0,7.0,57,0.00,,,0.00,Wunderground v.1.15,2013-05-05 19:16:00,
2013-05-05 15:22:00,63.3,46.9,30.09,SW,227,1.0,1.0,55,0.00,,,0.00,Wunderground v.1.15,2013-05-05 19:22:00,
2013-05-05 15:28:00,63.7,47.2,30.09,WNW,297,1.0,7.0,55,0.00,,,0.00,Wunderground v.1.15,2013-05-05 19:28:00,
2013-05-05 15:34:00,64.0,47.5,30.09,SW,220,1.0,7.0,55,0.00,,,0.00,Wunderground v.1.15,2013-05-05 19:34:00,
2013-05-05 15:40:00,63.8,46.8,30.09,South,188,0.0,7.0,54,0.00,,,0.00,Wunderground v.1.15,2013-05-05 19:40:00,
2013-05-05 15:48:00,64.3,47.3,30.08,NNE,12,0.0,7.0,54,0.00,,,0.00,Wunderground v.1.15,2013-05-05 19:48:00,
2013-05-05 15:54:00,64.9,46.8,30.08,WSW,243,0.0,7.0,52,0.00,,,0.00,Wunderground v.1.15,2013-05-05 19:54:00,
2013-05-05 16:02:00,64.4,47.4,30.08,WNW,286,1.0,6.0,54,0.00,,,0.00,Wunderground v.1.15,2013-05-05 20:02:00,
2013-05-05 16:08:00,63.9,46.4,30.08,SSW,213,1.0,6.0,53,0.00,,,0.00,Wunderground v.1.15,2013-05-05 20:08:00,
2013-05-05 16:14:00,63.3,45.9,30.08,WNW,296,1.0,6.0,53,0.00,,,0.00,Wunderground v.1.15,2013-05-05 20:14:00,
2013-05-05 16:20:00,63.0,47.1,30.08,WNW,296,0.0,6.0,56,0.00,,,0.00,Wunderground v.1.15,2013-05-05 20:20:00,
2013-05-05 16:26:00,62.7,46.8,30.08,SSW,200,0.0,6.0,56,0.00,,,0.00,Wunderground v.1.15,2013-05-05 20:26:00,
2013-05-05 16:32:00,62.6,46.7,30.08,SSW,200,0.0,6.0,56,0.00,,,0.00,Wunderground v.1.15,2013-05-05 20:32:00,
2013-05-05 16:38:00,62.8,46.9,30.08,SSW,200,0.0,6.0,56,0.00,,,0.00,Wunderground v.1.15,2013-05-05 20:38:00,
2013-05-05 16:44:00,63.2,47.7,30.07,SSW,208,0.0,6.0,57,0.00,,,0.00,Wunderground v.1.15,2013-05-05 20:44:00,
2013-05-05 16:50:00,63.9,47.4,30.07,North,355,0.0,6.0,55,0.00,,,0.00,Wunderground v.1.15,2013-05-05 20:50:00,
2013-05-05 16:56:00,64.6,49.0,30.07,North,355,1.0,6.0,57,0.00,,,0.00,Wunderground v.1.15,2013-05-05 20:56:00,
2013-05-05 17:02:00,65.1,48.5,30.07,North,355,1.0,5.0,55,0.00,,,0.00,Wunderground v.1.15,2013-05-05 21:02:00,
2013-05-05 17:08:00,65.4,48.3,30.07,North,5,1.0,5.0,54,0.00,,,0.00,Wunderground v.1.15,2013-05-05 21:08:00,
2013-05-05 17:14:00,65.6,49.0,30.07,North,5,0.0,5.0,55,0.00,,,0.00,Wunderground v.1.15,2013-05-05 21:14:00,
2013-05-05 17:20:00,65.9,47.8,30.07,South,184,0.0,5.0,52,0.00,,,0.00,Wunderground v.1.15,2013-05-05 21:20:00,
2013-05-05 17:26:00,66.1,48.0,30.06,NNE,23,0.0,5.0,52,0.00,,,0.00,Wunderground v.1.15,2013-05-05 21:26:00,
2013-05-05 17:32:00,66.3,48.7,30.07,NNE,23,0.0,5.0,53,0.00,,,0.00,Wunderground v.1.15,2013-05-05 21:32:00,
2013-05-05 17:38:00,66.6,48.9,30.07,NNW,333,0.0,5.0,53,0.00,,,0.00,Wunderground v.1.15,2013-05-05 21:38:00,
2013-05-05 17:44:00,66.5,48.3,30.07,ENE,63,0.0,5.0,52,0.00,,,0.00,Wunderground v.1.15,2013-05-05 21:44:00,
2013-05-05 17:50:00,66.6,49.4,30.07,South,177,0.0,5.0,54,0.00,,,0.00,Wunderground v.1.15,2013-05-05 21:50:00,
2013-05-05 17:56:00,66.5,48.8,30.06,WSW,244,0.0,5.0,53,0.00,,,0.00,Wunderground v.1.15,2013-05-05 21:56:00,
2013-05-05 18:02:00,66.2,49.1,30.06,NNW,333,0.0,4.0,54,0.00,,,0.00,Wunderground v.1.15,2013-05-05 22:02:00,
2013-05-05 18:10:00,66.2,47.5,30.06,South,183,0.0,4.0,51,0.00,,,0.00,Wunderground v.1.15,2013-05-05 22:10:00,
2013-05-05 18:18:00,65.5,47.9,30.06,WNW,303,0.0,4.0,53,0.00,,,0.00,Wunderground v.1.15,2013-05-05 22:18:00,
2013-05-05 18:24:00,64.9,46.3,30.07,WSW,254,0.0,4.0,51,0.00,,,0.00,Wunderground v.1.15,2013-05-05 22:24:00,
2013-05-05 18:30:00,64.5,47.0,30.07,WSW,253,0.0,4.0,53,0.00,,,0.00,Wunderground v.1.15,2013-05-05 22:30:00,
2013-05-05 18:36:00,64.0,47.5,30.07,SSW,208,0.0,4.0,55,0.00,,,0.00,Wunderground v.1.15,2013-05-05 22:36:00,
2013-05-05 18:42:00,63.4,46.9,30.06,SSW,206,0.0,4.0,55,0.00,,,0.00,Wunderground v.1.15,2013-05-05 22:42:00,
2013-05-05 18:48:00,62.8,47.8,30.06,SW,224,0.0,4.0,58,0.00,,,0.00,Wunderground v.1.15,2013-05-05 22:48:00,
2013-05-05 18:56:00,62.1,47.1,30.06,SSW,195,0.0,4.0,58,0.00,,,0.00,Wunderground v.1.15,2013-05-05 22:56:00,
2013-05-05 19:02:00,61.6,47.6,30.06,SSW,195,0.0,5.0,60,0.00,,,0.00,Wunderground v.1.15,2013-05-05 23:02:00,
2013-05-05 19:08:00,61.3,47.3,30.06,SSW,196,0.0,5.0,60,0.00,,,0.00,Wunderground v.1.15,2013-05-05 23:08:00,
2013-05-05 19:14:00,60.9,47.4,30.05,SSW,196,0.0,5.0,61,0.00,,,0.00,Wunderground v.1.15,2013-05-05 23:14:00,
2013-05-05 19:20:00,60.6,47.5,30.06,WNW,283,0.0,5.0,62,0.00,,,0.00,Wunderground v.1.15,2013-05-05 23:20:00,
2013-05-05 19:26:00,60.3,47.6,30.06,WNW,283,0.0,5.0,63,0.00,,,0.00,Wunderground v.1.15,2013-05-05 23:26:00,
2013-05-05 19:32:00,60.0,47.4,30.06,WNW,283,0.0,5.0,63,0.00,,,0.00,Wunderground v.1.15,2013-05-05 23:32:00,
2013-05-05 19:42:00,59.6,47.8,30.07,WNW,283,0.0,5.0,65,0.00,,,0.00,Wunderground v.1.15,2013-05-05 23:42:00,
2013-05-05 19:48:00,59.4,48.0,30.06,WNW,283,0.0,5.0,66,0.00,,,0.00,Wunderground v.1.15,2013-05-05 23:48:00,
2013-05-05 19:54:00,59.2,47.8,30.07,WNW,283,0.0,5.0,66,0.00,,,0.00,Wunderground v.1.15,2013-05-05 23:54:00,
2013-05-05 20:00:00,59.1,48.1,30.07,WNW,283,0.0,5.0,67,0.00,,,0.00,Wunderground v.1.15,2013-05-06 00:00:00,
2013-05-05 20:06:00,58.9,48.0,30.07,WNW,283,0.0,2.0,67,0.00,,,0.00,Wunderground v.1.15,2013-05-06 00:06:00,
2013-05-05 20:14:00,58.6,47.3,30.07,WNW,283,0.0,2.0,66,0.00,,,0.00,Wunderground v.1.15,2013-05-06 00:14:00,
2013-05-05 20:20:00,58.5,48.0,30.07,WNW,283,0.0,2.0,68,0.00,,,0.00,Wunderground v.1.15,2013-05-06 00:20:00,
2013-05-05 20:26:00,58.3,47.8,30.08,WNW,283,0.0,2.0,68,0.00,,,0.00,Wunderground v.1.15,2013-05-06 00:26:00,
2013-05-05 20:32:00,58.2,47.7,30.08,WNW,283,0.0,2.0,68,0.00,,,0.00,Wunderground v.1.15,2013-05-06 00:32:00,
2013-05-05 20:38:00,58.0,47.5,30.08,WNW,283,0.0,2.0,68,0.00,,,0.00,Wunderground v.1.15,2013-05-06 00:38:00,
2013-05-05 20:44:00,57.8,47.7,30.08,WNW,283,0.0,2.0,69,0.00,,,0.00,Wunderground v.1.15,2013-05-06 00:44:00,
2013-05-05 20:50:00,57.7,47.2,30.08,WNW,283,0.0,2.0,68,0.00,,,0.00,Wunderground v.1.15,2013-05-06 00:50:00,
2013-05-05 20:56:00,57.6,47.5,30.08,WNW,283,0.0,2.0,69,0.00,,,0.00,Wunderground v.1.15,2013-05-06 00:56:00,
2013-05-05 21:02:00,57.5,47.4,30.08,WNW,283,0.0,2.0,69,0.00,,,0.00,Wunderground v.1.15,2013-05-06 01:02:00,
2013-05-05 21:08:00,57.3,47.2,30.08,WNW,283,0.0,2.0,69,0.00,,,0.00,Wunderground v.1.15,2013-05-06 01:08:00,
2013-05-05 21:14:00,57.3,47.6,30.08,NW,318,0.0,2.0,70,0.00,,,0.00,Wunderground v.1.15,2013-05-06 01:14:00,
2013-05-05 21:20:00,57.1,47.4,30.08,NW,318,0.0,2.0,70,0.00,,,0.00,Wunderground v.1.15,2013-05-06 01:20:00,
2013-05-05 21:26:00,57.0,47.3,30.09,NW,318,0.0,2.0,70,0.00,,,0.00,Wunderground v.1.15,2013-05-06 01:26:00,
2013-05-05 21:32:00,56.9,47.6,30.09,NW,318,0.0,2.0,71,0.00,,,0.00,Wunderground v.1.15,2013-05-06 01:32:00,
2013-05-05 21:38:00,56.8,47.5,30.09,NW,318,0.0,2.0,71,0.00,,,0.00,Wunderground v.1.15,2013-05-06 01:38:00,
2013-05-05 21:44:00,56.8,47.5,30.09,NW,318,0.0,2.0,71,0.00,,,0.00,Wunderground v.1.15,2013-05-06 01:44:00,
2013-05-05 21:52:00,56.7,47.8,30.09,NW,318,0.0,2.0,72,0.00,,,0.00,Wunderground v.1.15,2013-05-06 01:52:00,
2013-05-05 21:58:00,56.6,47.7,30.10,NW,318,0.0,2.0,72,0.00,,,0.00,Wunderground v.1.15,2013-05-06 01:58:00,
2013-05-05 22:04:00,56.5,47.9,30.10,NW,318,0.0,1.0,73,0.00,,,0.00,Wunderground v.1.15,2013-05-06 02:04:00,
2013-05-05 22:10:00,56.4,47.9,30.10,NW,318,0.0,1.0,73,0.00,,,0.00,Wunderground v.1.15,2013-05-06 02:10:00,
2013-05-05 22:16:00,56.3,47.8,30.10,NW,318,0.0,1.0,73,0.00,,,0.00,Wunderground v.1.15,2013-05-06 02:16:00,
2013-05-05 22:22:00,56.2,48.0,30.10,NW,318,0.0,1.0,74,0.00,,,0.00,Wunderground v.1.15,2013-05-06 02:22:00,
2013-05-05 22:28:00,56.2,48.0,30.10,NW,318,0.0,1.0,74,0.00,,,0.00,Wunderground v.1.15,2013-05-06 02:28:00,
2013-05-05 22:34:00,56.1,48.3,30.10,NW,318,0.0,1.0,75,0.00,,,0.00,Wunderground v.1.15,2013-05-06 02:34:00,
2013-05-05 22:40:00,56.0,48.2,30.10,NW,318,0.0,1.0,75,0.00,,,0.00,Wunderground v.1.15,2013-05-06 02:40:00,
2013-05-05 22:46:00,56.0,48.2,30.10,NW,318,0.0,1.0,75,0.00,,,0.00,Wunderground v.1.15,2013-05-06 02:46:00,
2013-05-05 22:52:00,55.9,48.4,30.10,NW,318,0.0,1.0,76,0.00,,,0.00,Wunderground v.1.15,2013-05-06 02:52:00,
2013-05-05 22:58:00,55.9,47.7,30.10,SW,227,0.0,1.0,74,0.00,,,0.00,Wunderground v.1.15,2013-05-06 02:58:00,
2013-05-05 23:04:00,55.8,48.0,30.10,SW,227,0.0,1.0,75,0.00,,,0.00,Wunderground v.1.15,2013-05-06 03:04:00,
2013-05-05 23:10:00,55.7,48.2,30.10,SW,227,0.0,1.0,76,0.00,,,0.00,Wunderground v.1.15,2013-05-06 03:10:00,
2013-05-05 23:16:00,55.7,47.9,30.10,SW,227,0.0,1.0,75,0.00,,,0.00,Wunderground v.1.15,2013-05-06 03:16:00,
2013-05-05 23:24:00,55.6,48.2,30.10,WSW,246,0.0,1.0,76,0.00,,,0.00,Wunderground v.1.15,2013-05-06 03:24:00,
2013-05-05 23:30:00,55.5,48.1,30.10,WSW,246,0.0,1.0,76,0.00,,,0.00,Wunderground v.1.15,2013-05-06 03:30:00,
2013-05-05 23:36:00,55.4,48.0,30.09,WSW,246,0.0,1.0,76,0.00,,,0.00,Wunderground v.1.15,2013-05-06 03:36:00,
2013-05-05 23:48:00,55.3,47.9,30.09,West,277,0.0,1.0,76,0.00,,,0.00,Wunderground v.1.15,2013-05-06 03:48:00,
2013-05-05 23:56:00,55.3,47.9,30.09,West,277,0.0,1.0,76,0.00,,,0.00,Wunderground v.1.15,2013-05-06 03:56:00,